Time;durP1;ratioP1;P1;durP2;ratioP2;P2;SDS_P1;SDS_P2;PMS_P1;PMS_P2;Temp;Humidity;BMP_temperature;BMP_pressure;BME280_temperature;BME280_humidity;BME280_pressure;Samples;Min_cycle;Max_cycle;Signal;HPM_P1;HPM_P2
2022/12/09 00:01:09;;;;;;;21.53;11.27;;;;;;;;;;5038713;28;20033;-77
2022/12/09 00:03:38;;;;;;;16.57;10.30;;;;;;;;;;5054476;28;20437;-77
2022/12/09 00:06:20;;;;;;;18.67;10.40;;;;;;;;;;5055094;28;20056;-77
2022/12/09 00:08:46;;;;;;;17.27;10.87;;;;;;;;;;5037161;28;20064;-77
2022/12/09 00:11:12;;;;;;;21.60;11.57;;;;;;;;;;5054277;28;20182;-78
2022/12/09 00:13:38;;;;;;;20.23;10.87;;;;;;;;;;5055269;28;20040;-78
2022/12/09 00:16:13;;;;;;;23.30;11.50;;;;;;;;;;5054344;28;20034;-78
2022/12/09 00:18:40;;;;;;;16.63;11.27;;;;;;;;;;5054191;28;20488;-78
2022/12/09 00:21:13;;;;;;;21.93;11.03;;;;;;;;;;5054750;28;20072;-78
2022/12/09 00:23:42;;;;;;;21.30;12.53;;;;;;;;;;5054242;28;20029;-78
2022/12/09 00:26:08;;;;;;;24.77;11.47;;;;;;;;;;5055422;28;20057;-77
2022/12/09 00:28:34;;;;;;;26.73;12.30;;;;;;;;;;5054053;28;21074;-77
2022/12/09 00:31:01;;;;;;;21.33;11.97;;;;;;;;;;5055959;28;20056;-77
2022/12/09 00:33:29;;;;;;;19.30;11.30;;;;;;;;;;5042031;28;20707;-78
2022/12/09 00:35:55;;;;;;;18.87;10.67;;;;;;;;;;5056350;28;20032;-77
2022/12/09 00:38:21;;;;;;;18.70;10.73;;;;;;;;;;5055235;28;20108;-78
2022/12/09 00:40:47;;;;;;;14.97;11.00;;;;;;;;;;5055061;28;20044;-77
2022/12/09 00:43:13;;;;;;;19.67;10.93;;;;;;;;;;5054743;28;20037;-78
2022/12/09 00:45:39;;;;;;;18.03;10.60;;;;;;;;;;5060363;28;20085;-77
2022/12/09 00:48:05;;;;;;;20.17;11.90;;;;;;;;;;5058612;28;20113;-77
2022/12/09 00:50:34;;;;;;;16.37;10.90;;;;;;;;;;5057765;28;20071;-77
2022/12/09 00:53:02;;;;;;;15.03;9.60;;;;;;;;;;5055108;28;20183;-78
2022/12/09 00:55:28;;;;;;;18.83;10.23;;;;;;;;;;5053212;28;20037;-77
2022/12/09 00:57:54;;;;;;;16.83;10.40;;;;;;;;;;5041849;28;20033;-77
2022/12/09 01:00:22;;;;;;;18.90;11.40;;;;;;;;;;5039404;28;20322;-77
2022/12/09 01:02:48;;;;;;;18.07;10.60;;;;;;;;;;5038507;28;20029;-77
2022/12/09 01:05:14;;;;;;;16.77;10.43;;;;;;;;;;5053966;28;20051;-77
2022/12/09 01:07:40;;;;;;;19.23;10.50;;;;;;;;;;5038204;28;20099;-77
2022/12/09 01:10:09;;;;;;;21.00;11.03;;;;;;;;;;5036772;28;20059;-77
2022/12/09 01:12:35;;;;;;;17.90;9.50;;;;;;;;;;5054101;28;20033;-78
2022/12/09 01:15:02;;;;;;;16.50;10.23;;;;;;;;;;5062461;28;20035;-78
2022/12/09 01:17:28;;;;;;;18.97;10.77;;;;;;;;;;5056746;28;20026;-77
2022/12/09 01:19:54;;;;;;;16.10;9.70;;;;;;;;;;5064436;28;20088;-78
2022/12/09 01:22:20;;;;;;;20.67;10.90;;;;;;;;;;5061416;28;20029;-78
2022/12/09 01:24:46;;;;;;;21.00;10.73;;;;;;;;;;5040614;28;20025;-78
2022/12/09 01:27:12;;;;;;;20.23;10.53;;;;;;;;;;5044149;28;20035;-78
2022/12/09 01:29:38;;;;;;;16.97;9.83;;;;;;;;;;5052651;28;20390;-78
2022/12/09 01:32:07;;;;;;;19.53;10.20;;;;;;;;;;5064788;28;20430;-78
2022/12/09 01:34:33;;;;;;;15.37;10.40;;;;;;;;;;5070810;28;20167;-77
2022/12/09 01:36:59;;;;;;;16.70;10.60;;;;;;;;;;5040749;28;20413;-76
2022/12/09 01:39:25;;;;;;;17.73;10.60;;;;;;;;;;5049830;28;20087;-77
2022/12/09 01:41:51;;;;;;;21.50;10.87;;;;;;;;;;5051052;28;20272;-78
2022/12/09 01:44:20;;;;;;;18.40;10.10;;;;;;;;;;5062822;28;20029;-78
2022/12/09 01:46:46;;;;;;;17.90;10.13;;;;;;;;;;5067961;28;20040;-77
2022/12/09 01:49:18;;;;;;;16.10;9.47;;;;;;;;;;5068940;28;20033;-78
2022/12/09 01:51:47;;;;;;;19.47;10.20;;;;;;;;;;5055547;28;20063;-77
2022/12/09 01:54:13;;;;;;;23.10;10.00;;;;;;;;;;5067209;28;20025;-76
2022/12/09 01:56:40;;;;;;;17.30;10.07;;;;;;;;;;5073667;28;20275;-77
2022/12/09 01:59:10;;;;;;;18.40;9.70;;;;;;;;;;5057780;28;20109;-77
2022/12/09 02:01:36;;;;;;;17.57;9.03;;;;;;;;;;5042851;28;20116;-78
2022/12/09 02:04:02;;;;;;;15.40;8.67;;;;;;;;;;5070006;28;20464;-78
2022/12/09 02:06:28;;;;;;;18.50;10.03;;;;;;;;;;5073491;28;20219;-78
2022/12/09 02:08:55;;;;;;;21.37;9.73;;;;;;;;;;5056472;28;20271;-76
2022/12/09 02:11:23;;;;;;;18.00;9.40;;;;;;;;;;5053807;28;20037;-77
2022/12/09 02:13:54;;;;;;;15.83;9.07;;;;;;;;;;5066615;28;20029;-77
2022/12/09 02:16:23;;;;;;;21.43;9.90;;;;;;;;;;5073406;28;20255;-77
2022/12/09 02:18:49;;;;;;;15.03;10.33;;;;;;;;;;5068567;28;20328;-78
2022/12/09 02:21:18;;;;;;;16.97;10.00;;;;;;;;;;5056585;28;20044;-78
2022/12/09 02:23:47;;;;;;;19.40;10.30;;;;;;;;;;5069376;28;20107;-77
2022/12/09 02:26:17;;;;;;;16.93;9.87;;;;;;;;;;5056546;28;20271;-77
2022/12/09 02:28:46;;;;;;;17.20;10.10;;;;;;;;;;5056979;28;20051;-76
2022/12/09 02:31:31;;;;;;;17.90;10.23;;;;;;;;;;5056621;28;20033;-77
2022/12/09 02:34:14;;;;;;;18.63;10.67;;;;;;;;;;5073576;28;20338;-77
2022/12/09 02:36:44;;;;;;;16.07;10.27;;;;;;;;;;5043443;28;20350;-76
2022/12/09 02:39:10;;;;;;;19.40;10.83;;;;;;;;;;5073241;28;20264;-76
2022/12/09 02:41:39;;;;;;;20.50;10.93;;;;;;;;;;5066691;28;20276;-76
2022/12/09 02:44:24;;;;;;;19.27;11.30;;;;;;;;;;5047396;28;20732;-77
2022/12/09 02:46:51;;;;;;;20.10;11.30;;;;;;;;;;5068542;28;20585;-77
2022/12/09 02:49:19;;;;;;;18.77;11.20;;;;;;;;;;5056936;28;20595;-77
2022/12/09 02:51:46;;;;;;;17.87;11.67;;;;;;;;;;5068509;28;20275;-76
2022/12/09 02:54:13;;;;;;;20.77;11.00;;;;;;;;;;5048188;28;20025;-76
2022/12/09 02:56:41;;;;;;;23.93;11.30;;;;;;;;;;5067123;28;20355;-77
2022/12/09 02:59:07;;;;;;;14.70;10.10;;;;;;;;;;5060460;28;20283;-76
2022/12/09 03:01:49;;;;;;;21.93;12.60;;;;;;;;;;5057702;28;20359;-77
2022/12/09 03:04:19;;;;;;;18.17;10.33;;;;;;;;;;5075744;28;20358;-77
2022/12/09 03:06:52;;;;;;;18.57;11.70;;;;;;;;;;5067071;28;20600;-77
2022/12/09 03:09:26;;;;;;;18.87;11.53;;;;;;;;;;5059480;28;20266;-77
2022/12/09 03:11:55;;;;;;;22.43;11.40;;;;;;;;;;5068142;28;20265;-77
2022/12/09 03:14:29;;;;;;;20.33;11.30;;;;;;;;;;5066720;28;20617;-76
2022/12/09 03:17:01;;;;;;;19.43;12.00;;;;;;;;;;5055747;28;20362;-77
2022/12/09 03:19:30;;;;;;;22.52;12.85;;;;;;;;;;5046616;28;20342;-77
2022/12/09 03:21:57;;;;;;;20.57;12.30;;;;;;;;;;5058061;28;20041;-78
2022/12/09 03:24:46;;;;;;;27.23;13.50;;;;;;;;;;5057924;28;20297;-77
2022/12/09 03:27:14;;;;;;;23.80;12.80;;;;;;;;;;5064039;28;20359;-76
2022/12/09 03:29:42;;;;;;;18.17;11.67;;;;;;;;;;5047016;28;20294;-77
2022/12/09 03:32:09;;;;;;;18.23;11.10;;;;;;;;;;5069084;28;20267;-77
2022/12/09 03:34:37;;;;;;;19.03;11.77;;;;;;;;;;5068551;28;20330;-77
2022/12/09 03:37:04;;;;;;;18.53;11.60;;;;;;;;;;5050090;28;20270;-77
2022/12/09 03:39:32;;;;;;;21.47;12.37;;;;;;;;;;5056576;28;20252;-78
2022/12/09 03:42:03;;;;;;;20.77;12.00;;;;;;;;;;5055733;28;20996;-76
2022/12/09 03:44:55;;;;;;;16.50;11.20;;;;;;;;;;5078748;28;20267;-77
2022/12/09 03:47:21;;;;;;;20.55;12.40;;;;;;;;;;5052615;28;20569;-77
2022/12/09 03:49:48;;;;;;;18.57;12.27;;;;;;;;;;5055957;28;20032;-76
2022/12/09 03:52:17;;;;;;;18.50;12.20;;;;;;;;;;5061586;28;20268;-76
2022/12/09 03:54:44;;;;;;;22.43;12.63;;;;;;;;;;5072910;28;20260;-76
2022/12/09 03:57:12;;;;;;;25.83;14.70;;;;;;;;;;5043015;28;20704;-76
2022/12/09 03:59:39;;;;;;;25.57;14.70;;;;;;;;;;5054761;28;20943;-76
2022/12/09 04:02:05;;;;;;;22.07;13.87;;;;;;;;;;5042681;28;20260;-77
2022/12/09 04:04:32;;;;;;;21.57;13.60;;;;;;;;;;5070041;28;20324;-76
2022/12/09 04:06:58;;;;;;;31.07;14.37;;;;;;;;;;5055737;28;20279;-77
2022/12/09 04:09:24;;;;;;;27.70;14.23;;;;;;;;;;5069556;28;20294;-76
2022/12/09 04:11:53;;;;;;;25.73;13.53;;;;;;;;;;5055029;28;20271;-76
2022/12/09 04:14:19;;;;;;;24.27;13.87;;;;;;;;;;5059700;28;20460;-76
2022/12/09 04:16:45;;;;;;;26.30;14.97;;;;;;;;;;5065899;28;20719;-77
2022/12/09 04:19:14;;;;;;;27.93;14.30;;;;;;;;;;5057459;28;20437;-77
2022/12/09 04:21:40;;;;;;;29.30;15.63;;;;;;;;;;5049189;28;20368;-76
2022/12/09 04:24:06;;;;;;;24.13;15.17;;;;;;;;;;5055885;28;20294;-77
2022/12/09 04:26:35;;;;;;;26.00;14.80;;;;;;;;;;5051078;28;20719;-76
2022/12/09 04:29:02;;;;;;;25.57;13.83;;;;;;;;;;5040739;28;20592;-76
2022/12/09 04:31:30;;;;;;;27.30;14.20;;;;;;;;;;5056705;28;20267;-76
2022/12/09 04:33:56;;;;;;;26.60;14.67;;;;;;;;;;5062980;28;20263;-77
2022/12/09 04:36:22;;;;;;;22.07;13.50;;;;;;;;;;5069449;28;20346;-76
2022/12/09 04:38:48;;;;;;;22.27;13.63;;;;;;;;;;5058888;28;20298;-76
2022/12/09 04:41:15;;;;;;;25.87;14.30;;;;;;;;;;5054179;28;20282;-77
2022/12/09 04:43:43;;;;;;;25.97;14.60;;;;;;;;;;5049843;28;20279;-77
2022/12/09 04:46:13;;;;;;;32.13;13.77;;;;;;;;;;5042138;28;20272;-76
2022/12/09 04:48:40;;;;;;;23.60;14.23;;;;;;;;;;5060032;28;21104;-76
2022/12/09 04:51:09;;;;;;;20.73;13.30;;;;;;;;;;5044380;28;20260;-77
2022/12/09 04:53:36;;;;;;;23.53;13.60;;;;;;;;;;5080185;28;20318;-76
2022/12/09 04:56:03;;;;;;;23.93;13.07;;;;;;;;;;5044672;28;20259;-76
2022/12/09 04:58:29;;;;;;;19.53;12.67;;;;;;;;;;5047730;28;20272;-77
2022/12/09 05:00:55;;;;;;;24.73;13.27;;;;;;;;;;5060142;28;20329;-77
2022/12/09 05:03:21;;;;;;;20.53;13.03;;;;;;;;;;5075479;28;20286;-77
2022/12/09 05:05:48;;;;;;;28.53;13.13;;;;;;;;;;5051523;28;20264;-77
2022/12/09 05:08:14;;;;;;;28.40;14.77;;;;;;;;;;5052852;28;20279;-76
2022/12/09 05:10:41;;;;;;;26.97;15.57;;;;;;;;;;5054764;28;20732;-77
2022/12/09 05:13:07;;;;;;;31.30;15.93;;;;;;;;;;5078623;28;20278;-76
2022/12/09 05:15:33;;;;;;;30.77;16.23;;;;;;;;;;5049760;28;20747;-75
2022/12/09 05:18:01;;;;;;;30.57;15.60;;;;;;;;;;5053409;28;20294;-75
2022/12/09 05:20:28;;;;;;;27.23;14.50;;;;;;;;;;5053516;28;20284;-77
2022/12/09 05:22:54;;;;;;;25.43;13.80;;;;;;;;;;5054967;28;20361;-76
2022/12/09 05:25:20;;;;;;;26.90;13.77;;;;;;;;;;5053206;28;20279;-76
2022/12/09 05:27:47;;;;;;;25.53;14.73;;;;;;;;;;5039529;28;20774;-76
2022/12/09 05:30:15;;;;;;;32.77;14.90;;;;;;;;;;5037609;28;20284;-75
2022/12/09 05:32:41;;;;;;;34.53;15.40;;;;;;;;;;5037801;28;20287;-77
2022/12/09 05:35:07;;;;;;;29.23;15.70;;;;;;;;;;5055329;28;20314;-78
2022/12/09 05:37:34;;;;;;;31.23;15.43;;;;;;;;;;5056393;28;20276;-75
2022/12/09 05:40:00;;;;;;;33.97;15.90;;;;;;;;;;5038042;28;20317;-75
2022/12/09 05:42:26;;;;;;;29.40;15.17;;;;;;;;;;5056368;28;20288;-76
2022/12/09 05:44:53;;;;;;;29.77;14.90;;;;;;;;;;5053481;28;20299;-75
2022/12/09 05:47:19;;;;;;;27.33;14.20;;;;;;;;;;5053386;28;20771;-77
2022/12/09 05:49:45;;;;;;;32.30;15.40;;;;;;;;;;5040365;28;20382;-76
2022/12/09 05:52:13;;;;;;;29.40;15.70;;;;;;;;;;5054885;28;20302;-76
2022/12/09 05:54:39;;;;;;;36.37;16.57;;;;;;;;;;5052957;28;20279;-76
2022/12/09 05:57:05;;;;;;;30.20;15.23;;;;;;;;;;5040404;28;20274;-75
2022/12/09 05:59:31;;;;;;;38.20;18.23;;;;;;;;;;5050133;28;20367;-76
2022/12/09 06:01:57;;;;;;;37.80;18.07;;;;;;;;;;5058237;28;22037;-77
2022/12/09 06:04:23;;;;;;;40.47;16.67;;;;;;;;;;5053743;28;20287;-77
2022/12/09 06:06:49;;;;;;;42.97;18.87;;;;;;;;;;5056539;28;20775;-76
2022/12/09 06:09:15;;;;;;;33.20;16.33;;;;;;;;;;5053207;28;20287;-77
2022/12/09 06:11:41;;;;;;;37.17;18.93;;;;;;;;;;5054915;28;20271;-77
2022/12/09 06:14:08;;;;;;;38.30;18.13;;;;;;;;;;5053194;28;20764;-75
2022/12/09 06:16:34;;;;;;;36.70;18.97;;;;;;;;;;5057822;28;20752;-77
2022/12/09 06:19:00;;;;;;;39.97;18.73;;;;;;;;;;5054525;28;21261;-77
2022/12/09 06:21:26;;;;;;;37.70;17.93;;;;;;;;;;5054253;28;20294;-76
2022/12/09 06:23:52;;;;;;;34.87;17.13;;;;;;;;;;5057770;28;20453;-77
2022/12/09 06:26:21;;;;;;;41.37;19.43;;;;;;;;;;5053985;28;20287;-78
2022/12/09 06:28:59;;;;;;;42.73;19.60;;;;;;;;;;5057333;28;20280;-76
2022/12/09 06:31:26;;;;;;;37.77;17.90;;;;;;;;;;5057234;28;21929;-77
2022/12/09 06:33:58;;;;;;;37.73;18.57;;;;;;;;;;5057993;28;22067;-77
2022/12/09 06:36:25;;;;;;;40.90;18.23;;;;;;;;;;5058136;28;20279;-76
2022/12/09 06:38:53;;;;;;;38.97;18.43;;;;;;;;;;5043090;28;20299;-77
2022/12/09 06:41:19;;;;;;;43.97;19.77;;;;;;;;;;5058524;28;20278;-77
2022/12/09 06:43:45;;;;;;;36.30;17.37;;;;;;;;;;5058189;28;20292;-77
2022/12/09 06:46:12;;;;;;;45.53;19.40;;;;;;;;;;5057193;28;20276;-77
2022/12/09 06:48:38;;;;;;;34.97;17.90;;;;;;;;;;5058613;28;20276;-78
2022/12/09 06:51:07;;;;;;;43.70;19.13;;;;;;;;;;5059558;28;20283;-77
2022/12/09 06:53:33;;;;;;;41.10;19.30;;;;;;;;;;5059182;28;21102;-77
2022/12/09 06:56:06;;;;;;;42.63;19.40;;;;;;;;;;5058766;28;20362;-77
2022/12/09 06:58:34;;;;;;;41.30;19.70;;;;;;;;;;5041284;28;20275;-77
2022/12/09 07:01:07;;;;;;;44.33;19.23;;;;;;;;;;5058418;28;20291;-77
2022/12/09 07:03:34;;;;;;;51.27;22.93;;;;;;;;;;5045504;28;20291;-77
2022/12/09 07:06:01;;;;;;;45.00;21.50;;;;;;;;;;5059768;28;20727;-78
2022/12/09 07:08:27;;;;;;;45.40;19.20;;;;;;;;;;5057466;28;20272;-77
2022/12/09 07:10:53;;;;;;;46.93;20.87;;;;;;;;;;5061073;28;20280;-77
2022/12/09 07:13:19;;;;;;;50.37;20.57;;;;;;;;;;5057875;28;20612;-77
2022/12/09 07:15:45;;;;;;;46.80;19.97;;;;;;;;;;5057518;28;20284;-78
2022/12/09 07:18:11;;;;;;;43.03;19.40;;;;;;;;;;5055281;28;20255;-77
2022/12/09 07:20:37;;;;;;;37.33;18.93;;;;;;;;;;5062210;28;20262;-78
2022/12/09 07:23:03;;;;;;;40.03;18.47;;;;;;;;;;5054893;28;20279;-78
2022/12/09 07:25:30;;;;;;;36.43;18.10;;;;;;;;;;5064717;28;20278;-76
2022/12/09 07:27:58;;;;;;;42.73;19.90;;;;;;;;;;5068585;28;20264;-78
2022/12/09 07:30:24;;;;;;;46.93;19.47;;;;;;;;;;5063166;28;20268;-78
2022/12/09 07:32:50;;;;;;;36.60;18.40;;;;;;;;;;5058671;28;20268;-78
2022/12/09 07:35:16;;;;;;;36.17;17.23;;;;;;;;;;5056497;28;20268;-77
2022/12/09 07:37:42;;;;;;;39.40;18.77;;;;;;;;;;5064112;28;20268;-79
2022/12/09 07:40:08;;;;;;;44.17;19.20;;;;;;;;;;5044538;28;20286;-78
2022/12/09 07:42:35;;;;;;;41.37;19.63;;;;;;;;;;5062329;28;20274;-77
2022/12/09 07:45:01;;;;;;;45.37;20.03;;;;;;;;;;5049938;28;20272;-77
2022/12/09 07:47:27;;;;;;;47.30;20.10;;;;;;;;;;5051211;28;20268;-76
2022/12/09 07:49:53;;;;;;;50.50;22.13;;;;;;;;;;5068895;28;20275;-77
2022/12/09 07:52:19;;;;;;;47.90;22.80;;;;;;;;;;5068657;28;20260;-77
2022/12/09 07:54:45;;;;;;;54.00;23.60;;;;;;;;;;5058439;28;20278;-77
2022/12/09 07:57:11;;;;;;;58.20;23.97;;;;;;;;;;5054889;28;20621;-78
2022/12/09 07:59:39;;;;;;;54.00;24.57;;;;;;;;;;5050530;28;20715;-77
2022/12/09 08:02:08;;;;;;;55.47;24.57;;;;;;;;;;5056106;28;20283;-78
2022/12/09 08:04:35;;;;;;;48.33;22.30;;;;;;;;;;5064556;28;20362;-77
2022/12/09 08:07:01;;;;;;;55.57;24.20;;;;;;;;;;5063568;28;20263;-77
2022/12/09 08:09:27;;;;;;;51.53;23.60;;;;;;;;;;5059366;28;20276;-77
2022/12/09 08:11:53;;;;;;;50.67;23.57;;;;;;;;;;5062216;28;21008;-77
2022/12/09 08:14:19;;;;;;;49.77;24.00;;;;;;;;;;5064503;28;20291;-77
2022/12/09 08:16:45;;;;;;;56.57;23.57;;;;;;;;;;5059326;28;20298;-77
2022/12/09 08:19:11;;;;;;;52.87;23.97;;;;;;;;;;5072588;28;20275;-77
2022/12/09 08:21:38;;;;;;;44.97;22.73;;;;;;;;;;5044575;28;20275;-78
2022/12/09 08:24:06;;;;;;;48.20;23.97;;;;;;;;;;5073690;28;20316;-77
2022/12/09 08:26:32;;;;;;;53.73;24.90;;;;;;;;;;5070166;28;20286;-77
2022/12/09 08:28:58;;;;;;;48.67;20.60;;;;;;;;;;5042971;28;20301;-77
2022/12/09 08:31:25;;;;;;;44.47;22.93;;;;;;;;;;5066547;28;20260;-78
2022/12/09 08:33:51;;;;;;;49.17;21.90;;;;;;;;;;5040616;28;20267;-78
2022/12/09 08:36:18;;;;;;;42.90;22.23;;;;;;;;;;5054488;28;20263;-77
2022/12/09 08:38:44;;;;;;;42.20;23.10;;;;;;;;;;5065207;28;20275;-77
2022/12/09 08:41:14;;;;;;;52.23;22.37;;;;;;;;;;5050871;28;20259;-78
2022/12/09 08:43:41;;;;;;;52.60;23.27;;;;;;;;;;5067547;28;20810;-77
2022/12/09 08:46:07;;;;;;;51.30;23.53;;;;;;;;;;5066845;28;20279;-78
2022/12/09 08:48:37;;;;;;;58.13;24.40;;;;;;;;;;5077569;28;20331;-77
2022/12/09 08:51:03;;;;;;;50.17;23.80;;;;;;;;;;5064962;28;20267;-77
2022/12/09 08:53:29;;;;;;;43.33;22.20;;;;;;;;;;5052906;28;20283;-78
2022/12/09 08:55:55;;;;;;;48.53;24.10;;;;;;;;;;5062108;28;20275;-78
2022/12/09 08:58:21;;;;;;;44.87;23.43;;;;;;;;;;5065467;28;20260;-77
2022/12/09 09:00:47;;;;;;;46.77;24.13;;;;;;;;;;5048274;28;20325;-77
2022/12/09 09:03:15;;;;;;;50.90;24.47;;;;;;;;;;5065659;28;20287;-77
2022/12/09 09:05:42;;;;;;;44.83;24.40;;;;;;;;;;5055145;28;20256;-77
2022/12/09 09:08:08;;;;;;;52.07;25.50;;;;;;;;;;5061534;28;20342;-78
2022/12/09 09:10:35;;;;;;;55.23;28.87;;;;;;;;;;5040842;28;20294;-78
2022/12/09 09:13:01;;;;;;;59.53;33.67;;;;;;;;;;5070408;28;20276;-78
2022/12/09 09:15:30;;;;;;;52.37;26.87;;;;;;;;;;5056601;28;20582;-78
2022/12/09 09:17:56;;;;;;;46.83;25.50;;;;;;;;;;5063796;28;20275;-78
2022/12/09 09:20:24;;;;;;;51.17;25.47;;;;;;;;;;5065897;28;20267;-78
2022/12/09 09:22:50;;;;;;;52.80;26.77;;;;;;;;;;5050105;28;20290;-78
2022/12/09 09:25:22;;;;;;;46.07;25.87;;;;;;;;;;5065914;28;20266;-78
2022/12/09 09:27:48;;;;;;;48.78;23.95;;;;;;;;;;5060413;28;20676;-78
2022/12/09 09:30:14;;;;;;;43.47;23.47;;;;;;;;;;5073462;28;20044;-78
2022/12/09 09:32:40;;;;;;;44.40;24.63;;;;;;;;;;5053860;28;20362;-77
2022/12/09 09:35:09;;;;;;;47.57;24.67;;;;;;;;;;5073789;28;20298;-77
2022/12/09 09:37:35;;;;;;;42.83;24.10;;;;;;;;;;5043816;28;20048;-78
2022/12/09 09:40:01;;;;;;;43.07;23.70;;;;;;;;;;5061472;28;20261;-78
2022/12/09 09:42:33;;;;;;;38.43;23.87;;;;;;;;;;5051786;28;20288;-78
2022/12/09 09:45:02;;;;;;;42.58;23.67;;;;;;;;;;5063191;28;20657;-78
2022/12/09 09:47:57;;;;;;;44.17;24.07;;;;;;;;;;5067141;28;20024;-78
2022/12/09 09:50:30;;;;;;;37.77;21.53;;;;;;;;;;5041319;28;20271;-78
2022/12/09 09:52:59;;;;;;;35.73;20.93;;;;;;;;;;5059255;28;20095;-78
2022/12/09 09:55:51;;;;;;;37.83;20.33;;;;;;;;;;5064685;28;20049;-78
2022/12/09 09:58:38;;;;;;;40.10;21.27;;;;;;;;;;5060781;28;20025;-79
2022/12/09 10:01:14;;;;;;;38.43;21.20;;;;;;;;;;5049699;28;20059;-78
2022/12/09 10:03:40;;;;;;;34.77;20.77;;;;;;;;;;5068050;28;20283;-78
2022/12/09 10:06:11;;;;;;;38.90;22.47;;;;;;;;;;5066556;28;20275;-78
2022/12/09 10:08:37;;;;;;;34.93;20.67;;;;;;;;;;5082827;28;20032;-78
2022/12/09 10:11:17;;;;;;;33.30;19.53;;;;;;;;;;5072960;28;20742;-78
2022/12/09 10:13:46;;;;;;;31.23;18.47;;;;;;;;;;5058498;28;20036;-77
2022/12/09 10:16:15;;;;;;;29.63;18.47;;;;;;;;;;5059388;28;20040;-77
2022/12/09 10:18:49;;;;;;;33.80;18.60;;;;;;;;;;5067419;28;20037;-78
2022/12/09 10:21:16;;;;;;;32.93;20.30;;;;;;;;;;5073652;28;20116;-77
2022/12/09 10:23:45;;;;;;;30.10;18.17;;;;;;;;;;5057748;28;20036;-77
2022/12/09 10:26:16;;;;;;;31.50;17.93;;;;;;;;;;5076034;28;20102;-77
2022/12/09 10:28:46;;;;;;;28.20;17.33;;;;;;;;;;5049297;28;20032;-77
2022/12/09 10:31:12;;;;;;;36.53;18.47;;;;;;;;;;5062246;28;20102;-77
2022/12/09 10:33:39;;;;;;;30.17;17.03;;;;;;;;;;5056871;28;20029;-77
2022/12/09 10:36:06;;;;;;;28.13;17.60;;;;;;;;;;5070461;28;20025;-77
2022/12/09 10:38:35;;;;;;;27.07;16.43;;;;;;;;;;5056825;28;20047;-77
2022/12/09 10:43:33;;;;;;;32.33;18.70;;;;;;;;;;5058620;28;20465;-76
2022/12/09 10:44:23;;;;;;;38.07;18.73;;;;;;;;;;5051820;28;20036;-77
2022/12/09 10:46:56;;;;;;;37.63;19.98;;;;;;;;;;5048055;28;20080;-77
2022/12/09 10:49:23;;;;;;;34.53;18.83;;;;;;;;;;5071386;28;20041;-77
2022/12/09 10:51:50;;;;;;;25.93;15.47;;;;;;;;;;5057248;28;20024;-78
2022/12/09 10:54:43;;;;;;;29.80;16.60;;;;;;;;;;5060723;28;20040;-78
2022/12/09 10:57:12;;;;;;;28.13;17.48;;;;;;;;;;5049054;28;20035;-78
2022/12/09 10:59:39;;;;;;;29.57;15.80;;;;;;;;;;5072343;28;20028;-77
2022/12/09 11:02:05;;;;;;;29.03;16.47;;;;;;;;;;5059886;28;20025;-77
2022/12/09 11:04:35;;;;;;;26.73;16.83;;;;;;;;;;5057289;28;20056;-77
2022/12/09 11:07:14;;;;;;;31.07;17.17;;;;;;;;;;5076221;28;20013;-78
2022/12/09 11:09:50;;;;;;;28.10;16.93;;;;;;;;;;5077035;28;20039;-78
2022/12/09 11:12:28;;;;;;;34.30;16.97;;;;;;;;;;5060736;28;20032;-77
2022/12/09 11:14:55;;;;;;;30.60;17.70;;;;;;;;;;5050974;28;20561;-77
2022/12/09 11:17:22;;;;;;;31.60;17.47;;;;;;;;;;5054943;28;20060;-75
2022/12/09 11:20:15;;;;;;;30.83;18.00;;;;;;;;;;5057335;28;20021;-77
2022/12/09 11:22:42;;;;;;;34.58;20.25;;;;;;;;;;5037258;28;20037;-77
2022/12/09 11:25:11;;;;;;;31.50;18.77;;;;;;;;;;5057141;28;20057;-78
2022/12/09 11:27:48;;;;;;;31.63;18.20;;;;;;;;;;5058099;28;20033;-77
2022/12/09 11:30:34;;;;;;;35.13;18.90;;;;;;;;;;5056106;28;20163;-76
2022/12/09 11:33:00;;;;;;;33.80;18.00;;;;;;;;;;5057038;28;20052;-78
2022/12/09 11:35:31;;;;;;;25.50;17.53;;;;;;;;;;5056606;28;20037;-78
2022/12/09 11:37:58;;;;;;;36.07;20.23;;;;;;;;;;5060212;28;20033;-77
2022/12/09 11:40:27;;;;;;;27.97;18.17;;;;;;;;;;5039900;28;20072;-77
2022/12/09 11:42:54;;;;;;;29.57;18.83;;;;;;;;;;5042695;28;20098;-77
2022/12/09 11:45:39;;;;;;;38.90;20.83;;;;;;;;;;5056462;28;20823;-77
2022/12/09 11:48:05;;;;;;;32.83;20.03;;;;;;;;;;5058486;28;20021;-76
2022/12/09 11:50:32;;;;;;;37.33;22.10;;;;;;;;;;5056845;28;20437;-77
2022/12/09 11:53:10;;;;;;;38.40;21.50;;;;;;;;;;5061871;28;20044;-76
2022/12/09 11:55:44;;;;;;;34.67;19.70;;;;;;;;;;5054992;28;20029;-77
2022/12/09 11:58:13;;;;;;;32.90;20.23;;;;;;;;;;5057563;28;20025;-76
2022/12/09 12:00:42;;;;;;;34.50;21.37;;;;;;;;;;5053241;28;20454;-77
2022/12/09 12:03:13;;;;;;;34.70;20.53;;;;;;;;;;5056777;28;20036;-78
2022/12/09 12:05:44;;;;;;;34.03;22.17;;;;;;;;;;5055963;28;20472;-77
2022/12/09 12:08:28;;;;;;;31.10;19.33;;;;;;;;;;5055589;28;20060;-77
2022/12/09 12:10:57;;;;;;;35.07;18.83;;;;;;;;;;5057365;28;20029;-77
2022/12/09 12:13:27;;;;;;;28.00;17.67;;;;;;;;;;5039376;28;20025;-76
2022/12/09 12:16:11;;;;;;;26.27;16.87;;;;;;;;;;5053465;28;20029;-76
2022/12/09 12:18:47;;;;;;;33.23;18.97;;;;;;;;;;5042226;28;20068;-77
2022/12/09 12:21:19;;;;;;;32.07;18.80;;;;;;;;;;5055384;28;20504;-77
2022/12/09 12:23:57;;;;;;;41.47;21.95;;;;;;;;;;5053188;28;20040;-76
2022/12/09 12:26:44;;;;;;;33.30;20.30;;;;;;;;;;5053874;28;20254;-77
2022/12/09 12:29:20;;;;;;;32.63;19.40;;;;;;;;;;5028898;28;20040;-76
2022/12/09 12:31:55;;;;;;;32.30;19.47;;;;;;;;;;5053038;28;20028;-78
2022/12/09 12:34:21;;;;;;;32.77;20.37;;;;;;;;;;5055839;28;20119;-76
2022/12/09 12:36:50;;;;;;;30.17;19.07;;;;;;;;;;5055030;28;20044;-77
2022/12/09 12:39:16;;;;;;;35.70;22.53;;;;;;;;;;5057661;28;20032;-75
2022/12/09 12:41:49;;;;;;;32.80;19.20;;;;;;;;;;5055261;28;20030;-76
2022/12/09 12:47:29;;;;;;;36.40;20.70;;;;;;;;;;5037607;28;20049;-77
2022/12/09 12:50:10;;;;;;;37.93;20.43;;;;;;;;;;5055992;28;20076;-78
2022/12/09 12:52:45;;;;;;;47.13;21.83;;;;;;;;;;5054296;28;20048;-75
2022/12/09 12:55:16;;;;;;;34.43;19.40;;;;;;;;;;5054738;28;20052;-77
2022/12/09 12:57:55;;;;;;;34.60;21.17;;;;;;;;;;5054394;28;20135;-76
2022/12/09 13:00:25;;;;;;;36.13;21.70;;;;;;;;;;5055690;28;20056;-78
2022/12/09 13:02:54;;;;;;;39.17;22.03;;;;;;;;;;5053688;28;20091;-79
2022/12/09 13:05:22;;;;;;;43.27;23.03;;;;;;;;;;5037800;28;20459;-78
2022/12/09 13:07:48;;;;;;;35.50;21.53;;;;;;;;;;5054232;28;20420;-78
2022/12/09 13:10:20;;;;;;;36.83;21.77;;;;;;;;;;5040879;28;20029;-79
2022/12/09 13:12:53;;;;;;;33.10;20.50;;;;;;;;;;5054606;28;20037;-79
2022/12/09 13:15:50;;;;;;;30.47;19.17;;;;;;;;;;5053691;28;20037;-78
2022/12/09 13:18:34;;;;;;;30.23;18.33;;;;;;;;;;5057118;28;20037;-78
2022/12/09 13:21:01;;;;;;;31.07;18.73;;;;;;;;;;5057273;28;20382;-79
2022/12/09 13:23:47;;;;;;;33.43;17.60;;;;;;;;;;5081910;28;20029;-79
2022/12/09 13:26:18;;;;;;;32.60;19.67;;;;;;;;;;5037260;28;20072;-79
2022/12/09 13:29:07;;;;;;;34.05;18.85;;;;;;;;;;5063198;28;20025;-78
2022/12/09 13:31:34;;;;;;;32.90;18.60;;;;;;;;;;5072601;28;20072;-78
2022/12/09 13:34:03;;;;;;;32.07;17.27;;;;;;;;;;5047956;28;20040;-78
2022/12/09 13:36:32;;;;;;;29.67;16.27;;;;;;;;;;5057001;28;20476;-79
2022/12/09 13:38:59;;;;;;;28.07;17.27;;;;;;;;;;5074631;28;20044;-78
2022/12/09 13:42:51;;;;;;;32.57;18.83;;;;;;;;;;5073913;28;20033;-78
2022/12/09 13:44:20;;;;;;;24.50;16.30;;;;;;;;;;5063161;28;20052;-78
2022/12/09 13:46:46;;;;;;;26.30;16.83;;;;;;;;;;5058417;28;20094;-79
2022/12/09 13:49:26;;;;;;;33.27;16.20;;;;;;;;;;5064522;28;20032;-79
2022/12/09 13:51:53;;;;;;;37.07;18.63;;;;;;;;;;5067316;28;20090;-78
2022/12/09 13:54:24;;;;;;;32.30;19.47;;;;;;;;;;5069099;28;20033;-78
2022/12/09 13:57:09;;;;;;;34.27;17.83;;;;;;;;;;5039544;28;20053;-78
2022/12/09 13:59:48;;;;;;;35.70;18.10;;;;;;;;;;5069598;28;20116;-79
2022/12/09 14:02:20;;;;;;;27.17;17.60;;;;;;;;;;5065263;28;20024;-77
2022/12/09 14:05:07;;;;;;;40.13;20.90;;;;;;;;;;5085901;28;20032;-78
2022/12/09 14:07:46;;;;;;;34.90;20.00;;;;;;;;;;5045213;28;20564;-79
2022/12/09 14:10:31;;;;;;;32.63;18.23;;;;;;;;;;5063564;28;20064;-78
2022/12/09 14:12:59;;;;;;;43.60;22.70;;;;;;;;;;5062517;28;20508;-78
2022/12/09 14:15:27;;;;;;;28.07;16.90;;;;;;;;;;5084264;28;20028;-79
2022/12/09 14:17:58;;;;;;;34.77;18.00;;;;;;;;;;5057348;28;20033;-78
2022/12/09 14:20:36;;;;;;;29.23;17.17;;;;;;;;;;5065283;28;20029;-77
2022/12/09 14:23:08;;;;;;;30.70;16.50;;;;;;;;;;5064163;28;20037;-78
2022/12/09 14:25:34;;;;;;;31.10;17.45;;;;;;;;;;5062129;28;20024;-78
2022/12/09 14:28:09;;;;;;;37.53;19.57;;;;;;;;;;5074274;28;20017;-78
2022/12/09 14:30:48;;;;;;;34.30;18.13;;;;;;;;;;5068329;28;20021;-79
2022/12/09 14:33:30;;;;;;;33.43;18.73;;;;;;;;;;5077814;28;20063;-78
2022/12/09 14:36:01;;;;;;;30.23;18.43;;;;;;;;;;5050515;28;20032;-78